Terminal Aerodrome Forecast
Issued by NWS

Home | Current Version | Previous Version | Text Only | Print | Product List | Glossary On
Versions: 1 2 3 4 5 6 7 8 9 10 11 12 13 14 15 16 17 18 19 20
000
FTUS44 KLZK 241726
TAFLLQ
TAF
KLLQ 241726Z 2418/2518 23006KT P6SM BKN017
     FM241900 18004KT P6SM VCTS SCT020CB BKN100
      TEMPO 2419/2421 BKN020CB OVC100
     FM250100 21005KT P6SM BKN250
     FM251500 23006KT P6SM BKN250=

USA.gov is the U.S. government's official web portal to all federal, state and local government web resources and services.